createdAt,value
2023-04-25T00:02:15.850Z,56.21
2023-04-25T00:04:43.347Z,56.43
2023-04-25T00:07:11.491Z,56.10
2023-04-25T00:09:38.404Z,56.24
2023-04-25T00:12:05.483Z,56.21
2023-04-25T00:14:35.056Z,56.17
2023-04-25T00:17:02.362Z,56.00
2023-04-25T00:19:29.439Z,56.22
2023-04-25T00:21:56.797Z,56.00
2023-04-25T00:24:23.710Z,56.25
2023-04-25T00:26:50.646Z,56.09
2023-04-25T00:29:17.538Z,56.15
2023-04-25T00:31:44.740Z,56.29
2023-04-25T00:34:11.681Z,55.91
2023-04-25T00:36:39.055Z,55.85
2023-04-25T00:39:06.029Z,56.21
2023-04-25T00:41:34.116Z,56.28
2023-04-25T00:44:03.185Z,56.06
2023-04-25T00:46:31.237Z,55.73
2023-04-25T00:48:58.264Z,56.26
2023-04-25T00:51:27.438Z,55.83
2023-04-25T00:53:55.064Z,55.78
2023-04-25T00:56:22.448Z,56.21
2023-04-25T00:58:50.757Z,55.93
2023-04-25T01:01:18.042Z,55.86
2023-04-25T01:03:48.082Z,56.02
2023-04-25T01:06:15.037Z,56.14
2023-04-25T01:08:44.095Z,55.95
2023-04-25T01:11:11.088Z,56.06
2023-04-25T01:13:38.072Z,55.69
2023-04-25T01:16:05.398Z,56.03
2023-04-25T01:18:33.237Z,56.11
2023-04-25T01:21:12.597Z,56.06
2023-04-25T01:23:41.643Z,55.96
2023-04-25T01:26:11.544Z,56.03
2023-04-25T01:28:43.336Z,55.97
2023-04-25T01:31:13.191Z,55.89
2023-04-25T01:33:40.236Z,55.90
2023-04-25T01:36:07.484Z,55.78
2023-04-25T01:38:36.343Z,56.04
2023-04-25T01:41:03.555Z,55.98
2023-04-25T01:43:30.654Z,55.52
2023-04-25T01:45:58.108Z,55.79
2023-04-25T01:48:25.494Z,55.93
2023-04-25T01:50:52.476Z,55.75
2023-04-25T01:53:19.468Z,55.51
2023-04-25T01:55:47.119Z,55.72
2023-04-25T01:58:16.458Z,55.93
2023-04-25T02:01:02.098Z,55.89
2023-04-25T02:03:36.215Z,56.21
2023-04-25T02:06:06.067Z,56.26
2023-04-25T02:08:35.789Z,55.82
2023-04-25T02:11:04.182Z,56.19
2023-04-25T02:13:38.081Z,56.38
2023-04-25T02:16:17.070Z,56.25
2023-04-25T02:18:45.909Z,56.17
2023-04-25T02:21:12.802Z,56.05
2023-04-25T02:23:39.759Z,56.26
2023-04-25T02:26:07.386Z,56.15
2023-04-25T02:28:34.307Z,56.33
2023-04-25T02:31:05.095Z,56.19
2023-04-25T02:33:32.030Z,55.79
2023-04-25T02:35:58.964Z,55.83
2023-04-25T02:38:26.290Z,56.00
2023-04-25T02:40:53.210Z,56.12
2023-04-25T02:43:20.169Z,55.89
2023-04-25T02:45:47.065Z,56.26
2023-04-25T02:48:14.001Z,56.19
2023-04-25T02:50:40.970Z,56.43
2023-04-25T02:53:07.936Z,56.02
2023-04-25T02:55:41.623Z,55.99
2023-04-25T02:58:08.662Z,56.26
2023-04-25T03:00:44.975Z,56.30
2023-04-25T03:03:12.324Z,56.23
2023-04-25T03:05:39.619Z,56.06
2023-04-25T03:08:07.275Z,55.98
2023-04-25T03:10:35.324Z,55.78
2023-04-25T03:13:06.208Z,55.89
2023-04-25T03:15:33.164Z,55.92
2023-04-25T03:18:00.161Z,56.29
2023-04-25T03:20:27.111Z,56.06
2023-04-25T03:22:54.221Z,56.41
2023-04-25T03:25:21.250Z,56.46
2023-04-25T03:27:48.222Z,56.38
2023-04-25T03:30:15.465Z,56.48
2023-04-25T03:32:44.469Z,56.39
2023-04-25T03:35:15.384Z,56.59
2023-04-25T03:37:46.326Z,56.91
2023-04-25T03:40:17.390Z,56.88
2023-04-25T03:43:05.834Z,57.10
2023-04-25T03:45:33.961Z,57.33
2023-04-25T03:48:01.168Z,57.77
2023-04-25T03:50:29.981Z,57.72
2023-04-25T03:52:56.887Z,57.74
2023-04-25T03:55:26.953Z,57.77
2023-04-25T03:57:53.991Z,57.71
2023-04-25T04:00:21.027Z,57.63
2023-04-25T04:02:51.966Z,58.04
2023-04-25T04:05:19.264Z,57.74
2023-04-25T04:07:52.617Z,57.77
2023-04-25T04:10:19.542Z,57.76
2023-04-25T04:12:46.515Z,57.91
2023-04-25T04:15:13.555Z,58.30
2023-04-25T04:17:42.200Z,58.00
2023-04-25T04:20:10.960Z,58.17
2023-04-25T04:22:39.788Z,58.23
2023-04-25T04:25:12.565Z,58.08
2023-04-25T04:27:59.949Z,57.95
2023-04-25T04:30:47.896Z,58.26
2023-04-25T04:33:19.915Z,58.47
2023-04-25T04:35:49.797Z,57.98
2023-04-25T04:38:19.579Z,57.97
2023-04-25T04:40:47.254Z,58.10
2023-04-25T04:43:20.341Z,58.23
2023-04-25T04:46:02.641Z,58.14
2023-04-25T04:48:59.643Z,57.92
2023-04-25T04:51:46.844Z,58.12
2023-04-25T04:54:34.657Z,58.17
2023-04-25T04:57:14.785Z,58.15
2023-04-25T05:00:00.557Z,58.01
2023-04-25T05:02:53.565Z,58.21
2023-04-25T05:05:40.970Z,57.73
2023-04-25T05:08:17.987Z,58.01
2023-04-25T05:11:04.402Z,58.10
2023-04-25T05:13:38.278Z,57.85
2023-04-25T05:16:16.027Z,57.92
2023-04-25T05:19:09.218Z,57.81
2023-04-25T05:21:47.476Z,57.62
2023-04-25T05:24:27.761Z,57.58
2023-04-25T05:27:12.465Z,57.61
2023-04-25T05:30:06.488Z,57.22
2023-04-25T05:32:41.567Z,57.26
2023-04-25T05:35:09.887Z,57.23
2023-04-25T05:37:45.326Z,57.08
2023-04-25T05:40:14.413Z,57.33
2023-04-25T05:42:54.461Z,56.79
2023-04-25T05:45:31.848Z,56.64
2023-04-25T05:48:04.588Z,56.55
2023-04-25T05:50:50.212Z,56.15
2023-04-25T05:53:26.409Z,55.66
2023-04-25T05:55:59.492Z,55.95
2023-04-25T05:58:27.873Z,55.65
2023-04-25T06:00:55.608Z,54.53
2023-04-25T06:03:22.802Z,53.86
2023-04-25T06:05:51.349Z,53.32
2023-04-25T06:08:18.258Z,53.33
2023-04-25T06:10:45.248Z,52.82
2023-04-25T06:13:12.194Z,52.55
2023-04-25T06:15:39.202Z,51.69
2023-04-25T06:18:06.232Z,51.08
2023-04-25T06:20:34.684Z,51.45
2023-04-25T06:23:02.086Z,51.13
2023-04-25T06:25:39.205Z,51.48
2023-04-25T06:28:06.367Z,51.61
2023-04-25T06:30:33.259Z,51.05
2023-04-25T06:33:06.224Z,50.94
2023-04-25T06:35:33.729Z,50.35
2023-04-25T06:38:00.950Z,50.41
2023-04-25T06:40:28.238Z,50.29
2023-04-25T06:42:55.330Z,49.42
2023-04-25T06:45:48.510Z,49.16
2023-04-25T06:48:16.529Z,48.98
2023-04-25T06:50:43.499Z,48.72
2023-04-25T06:53:12.480Z,48.18
2023-04-25T06:55:40.582Z,48.22
2023-04-25T06:58:13.635Z,47.88
2023-04-25T07:00:55.773Z,48.20
2023-04-25T07:03:25.346Z,48.48
2023-04-25T07:05:56.506Z,48.52
2023-04-25T07:08:24.824Z,47.49
2023-04-25T07:10:51.752Z,46.86
2023-04-25T07:13:18.625Z,46.63
2023-04-25T07:15:45.924Z,46.16
2023-04-25T07:18:13.665Z,46.13
2023-04-25T07:20:40.759Z,44.67
2023-04-25T07:23:07.677Z,44.23
2023-04-25T07:25:34.620Z,44.42
2023-04-25T07:28:02.187Z,44.00
2023-04-25T07:30:29.175Z,44.39
2023-04-25T07:32:56.881Z,43.40
2023-04-25T07:35:24.369Z,43.97
2023-04-25T07:37:51.394Z,44.30
2023-04-25T07:40:19.991Z,42.91
2023-04-25T07:42:50.871Z,41.87
2023-04-25T07:45:24.567Z,42.03
2023-04-25T07:47:52.385Z,41.50
2023-04-25T07:50:19.357Z,40.55
2023-04-25T07:52:47.633Z,41.35
2023-04-25T07:55:22.192Z,40.58
2023-04-25T07:57:57.948Z,41.39
2023-04-25T08:00:24.883Z,41.08
2023-04-25T08:03:03.750Z,40.83
2023-04-25T08:05:30.945Z,40.77
2023-04-25T08:08:03.469Z,39.62
2023-04-25T08:10:30.857Z,39.64
2023-04-25T08:12:57.868Z,39.78
2023-04-25T08:15:24.858Z,39.94
2023-04-25T08:17:52.126Z,40.45
2023-04-25T08:20:19.646Z,39.41
2023-04-25T08:22:46.922Z,39.22
2023-04-25T08:25:26.353Z,39.99
2023-04-25T08:27:54.019Z,39.57
2023-04-25T08:30:22.919Z,38.83
2023-04-25T08:32:51.188Z,38.63
2023-04-25T08:35:31.946Z,39.16
2023-04-25T08:37:58.924Z,39.23
2023-04-25T08:40:30.981Z,38.43
2023-04-25T08:43:04.881Z,38.07
2023-04-25T08:45:33.431Z,37.79
2023-04-25T08:48:02.121Z,38.76
2023-04-25T08:50:29.210Z,39.17
2023-04-25T08:53:03.924Z,36.82
2023-04-25T08:55:32.402Z,37.02
2023-04-25T08:58:01.711Z,37.17
2023-04-25T09:00:29.341Z,36.85
2023-04-25T09:02:58.061Z,37.12
2023-04-25T09:05:30.384Z,37.52
2023-04-25T09:07:57.442Z,36.59
2023-04-25T09:10:24.638Z,35.65
2023-04-25T09:13:16.072Z,34.97
2023-04-25T09:16:01.664Z,35.29
2023-04-25T09:18:40.046Z,35.35
2023-04-25T09:21:14.199Z,36.48
2023-04-25T09:23:48.329Z,35.51
2023-04-25T09:26:18.187Z,35.40
2023-04-25T09:28:46.810Z,35.23
2023-04-25T09:31:26.217Z,36.00
2023-04-25T09:34:04.497Z,35.42
2023-04-25T09:36:41.263Z,35.00
2023-04-25T09:39:30.486Z,35.69
2023-04-25T09:42:06.041Z,34.98
2023-04-25T09:44:33.190Z,35.34
2023-04-25T09:47:00.208Z,34.73
2023-04-25T09:49:29.837Z,34.56
2023-04-25T09:52:18.524Z,34.48
2023-04-25T09:54:56.526Z,34.70
2023-04-25T09:57:30.507Z,34.59
2023-04-25T10:00:01.969Z,34.42
2023-04-25T10:02:44.170Z,34.63
2023-04-25T10:05:17.927Z,34.63
2023-04-25T10:07:45.562Z,35.01
2023-04-25T10:10:17.514Z,35.32
2023-04-25T10:12:45.551Z,35.34
2023-04-25T10:15:14.804Z,34.77
2023-04-25T10:17:41.742Z,35.10
2023-04-25T10:20:11.752Z,35.05
2023-04-25T10:22:43.716Z,34.35
2023-04-25T10:25:12.195Z,34.63
2023-04-25T10:27:40.577Z,34.95
2023-04-25T10:30:16.200Z,35.54
2023-04-25T10:32:44.062Z,35.21
2023-04-25T10:35:25.733Z,35.27
2023-04-25T10:38:20.209Z,35.83
2023-04-25T10:41:09.937Z,36.27
2023-04-25T10:43:42.857Z,36.56
2023-04-25T10:46:27.891Z,36.99
2023-04-25T10:49:00.374Z,36.76
2023-04-25T10:51:37.162Z,36.83
2023-04-25T10:54:10.659Z,37.25
2023-04-25T10:56:39.263Z,37.21
2023-04-25T10:59:15.280Z,36.87
2023-04-25T11:01:47.641Z,36.71
2023-04-25T11:04:26.966Z,36.60
2023-04-25T11:07:10.894Z,36.60
2023-04-25T11:09:41.412Z,36.79
2023-04-25T11:12:12.855Z,36.74
2023-04-25T11:17:12.196Z,36.72
2023-04-25T11:19:39.170Z,36.56
2023-04-25T11:22:07.073Z,36.40
2023-04-25T11:24:36.416Z,36.57
2023-04-25T11:27:04.869Z,36.71
2023-04-25T11:29:33.537Z,36.74
2023-04-25T11:32:02.469Z,36.91
2023-04-25T11:34:33.987Z,37.23
2023-04-25T11:37:03.287Z,37.29
2023-04-25T11:39:30.622Z,37.37
2023-04-25T11:41:57.659Z,37.58
2023-04-25T11:44:24.738Z,37.95
2023-04-25T11:46:51.592Z,38.18
2023-04-25T11:49:19.355Z,37.98
2023-04-25T11:51:48.639Z,38.16
2023-04-25T11:54:16.453Z,38.42
2023-04-25T11:56:47.146Z,37.24
2023-04-25T11:59:14.703Z,36.87
2023-04-25T12:01:50.703Z,37.09
2023-04-25T12:04:27.193Z,37.10
2023-04-25T12:06:56.508Z,36.68
2023-04-25T12:09:32.748Z,36.63
2023-04-25T12:12:03.822Z,36.27
2023-04-25T12:14:36.589Z,36.63
2023-04-25T12:17:05.312Z,36.46
2023-04-25T12:19:35.623Z,36.91
2023-04-25T12:22:24.816Z,37.00
2023-04-25T12:24:52.182Z,37.19
2023-04-25T12:27:19.640Z,36.82
2023-04-25T12:29:57.275Z,36.72
2023-04-25T12:32:24.567Z,36.52
2023-04-25T12:34:51.574Z,36.58
2023-04-25T12:37:18.531Z,36.64
2023-04-25T12:39:45.656Z,36.74
2023-04-25T12:42:13.802Z,36.04
2023-04-25T12:44:41.666Z,36.61
2023-04-25T12:47:08.712Z,36.76
2023-04-25T12:49:35.833Z,37.17
2023-04-25T12:52:02.733Z,37.64
2023-04-25T12:54:29.710Z,37.84
2023-04-25T12:56:56.678Z,37.99
2023-04-25T12:59:23.547Z,38.12
2023-04-25T13:01:50.472Z,37.97
2023-04-25T13:04:17.718Z,37.45
2023-04-25T13:06:44.741Z,37.39
2023-04-25T13:09:13.269Z,37.30
2023-04-25T13:11:41.444Z,36.76
2023-04-25T13:14:08.448Z,36.95
2023-04-25T13:16:35.630Z,37.10
2023-04-25T13:19:02.636Z,37.01
2023-04-25T13:21:33.980Z,36.97
2023-04-25T13:24:00.984Z,37.34
2023-04-25T13:26:27.920Z,37.30
2023-04-25T13:28:54.784Z,37.42
2023-04-25T13:31:22.000Z,37.51
2023-04-25T13:33:49.112Z,37.69
2023-04-25T13:36:16.258Z,37.85
2023-04-25T13:38:45.025Z,38.08
2023-04-25T13:41:16.787Z,38.69
2023-04-25T13:43:43.723Z,39.37
2023-04-25T13:46:24.813Z,39.75
2023-04-25T13:49:03.003Z,40.06
2023-04-25T13:51:37.085Z,40.38
2023-04-25T13:54:04.067Z,40.61
2023-04-25T13:56:31.292Z,40.82
2023-04-25T13:58:58.247Z,41.10
2023-04-25T14:01:25.228Z,41.24
2023-04-25T14:03:52.368Z,41.38
2023-04-25T14:06:23.744Z,41.58
2023-04-25T14:08:51.711Z,41.48
2023-04-25T14:11:19.272Z,41.51
2023-04-25T14:13:47.097Z,41.45
2023-04-25T14:16:14.079Z,41.50
2023-04-25T14:18:40.991Z,41.14
2023-04-25T14:21:07.873Z,40.94
2023-04-25T14:23:34.726Z,40.80
2023-04-25T14:26:01.795Z,40.18
2023-04-25T14:28:28.699Z,39.86
2023-04-25T14:30:55.733Z,39.41
2023-04-25T14:33:23.090Z,39.11
2023-04-25T14:35:49.967Z,38.86
2023-04-25T14:38:16.958Z,38.78
2023-04-25T14:40:43.817Z,38.43
2023-04-25T14:43:10.727Z,38.72
2023-04-25T14:45:37.655Z,38.52
2023-04-25T14:48:04.935Z,38.91
2023-04-25T14:50:31.958Z,39.20
2023-04-25T14:53:01.366Z,39.23
2023-04-25T14:55:28.614Z,39.14
2023-04-25T14:57:57.517Z,39.13
2023-04-25T15:00:26.210Z,39.35
2023-04-25T15:02:53.466Z,39.22
2023-04-25T15:05:21.019Z,39.34
2023-04-25T15:07:48.755Z,39.60
2023-04-25T15:10:16.929Z,39.55
2023-04-25T15:12:46.909Z,39.32
2023-04-25T15:15:22.782Z,39.42
2023-04-25T15:17:56.483Z,39.60
2023-04-25T15:20:26.028Z,38.91
2023-04-25T15:22:53.131Z,38.70
2023-04-25T15:25:20.106Z,38.84
2023-04-25T15:27:49.509Z,39.12
2023-04-25T15:30:18.166Z,39.47
2023-04-25T15:32:48.720Z,39.78
2023-04-25T15:35:16.283Z,39.95
2023-04-25T15:37:43.383Z,39.66
2023-04-25T15:40:14.688Z,39.88
2023-04-25T15:42:53.227Z,39.72
2023-04-25T15:45:24.218Z,39.29
2023-04-25T15:47:52.882Z,39.17
2023-04-25T15:50:20.392Z,39.21
2023-04-25T15:52:49.909Z,39.45
2023-04-25T15:55:17.505Z,39.09
2023-04-25T15:57:44.416Z,39.44
2023-04-25T16:00:13.540Z,39.59
2023-04-25T16:02:42.068Z,39.73
2023-04-25T16:05:11.494Z,39.90
2023-04-25T16:07:40.092Z,39.98
2023-04-25T16:10:07.901Z,40.06
2023-04-25T16:12:34.892Z,39.60
2023-04-25T16:15:01.875Z,39.84
2023-04-25T16:17:30.055Z,39.69
2023-04-25T16:19:58.000Z,39.52
2023-04-25T16:22:25.134Z,39.48
2023-04-25T16:24:53.353Z,39.19
2023-04-25T16:27:20.320Z,38.95
2023-04-25T16:29:49.397Z,39.15
2023-04-25T16:32:16.298Z,39.17
2023-04-25T16:34:43.584Z,39.62
2023-04-25T16:37:11.018Z,39.70
2023-04-25T16:39:37.922Z,39.73
2023-04-25T16:42:05.037Z,40.10
2023-04-25T16:44:32.057Z,40.17
2023-04-25T16:46:58.995Z,40.54
2023-04-25T16:49:26.473Z,39.72
2023-04-25T16:51:53.636Z,39.25
2023-04-25T16:54:20.822Z,38.97
2023-04-25T16:56:47.741Z,38.41
2023-04-25T16:59:14.661Z,38.16
2023-04-25T17:01:41.541Z,38.44
2023-04-25T17:04:08.572Z,38.76
2023-04-25T17:06:35.585Z,38.65
2023-04-25T17:09:02.494Z,38.68
2023-04-25T17:11:29.720Z,38.89
2023-04-25T17:13:56.596Z,39.42
2023-04-25T17:16:23.576Z,39.91
2023-04-25T17:18:51.325Z,39.98
2023-04-25T17:21:18.709Z,40.09
2023-04-25T17:23:46.165Z,40.33
2023-04-25T17:26:13.581Z,40.37
2023-04-25T17:28:42.053Z,40.47
2023-04-25T17:31:09.830Z,40.69
2023-04-25T17:33:36.827Z,40.60
2023-04-25T17:36:05.358Z,40.71
2023-04-25T17:38:32.784Z,41.05
2023-04-25T17:40:59.928Z,41.02
2023-04-25T17:43:27.696Z,40.82
2023-04-25T17:45:54.869Z,40.75
2023-04-25T17:48:22.848Z,41.07
2023-04-25T17:50:49.869Z,41.01
2023-04-25T17:53:16.822Z,40.99
2023-04-25T17:55:43.963Z,41.10
2023-04-25T17:58:11.513Z,41.34
2023-04-25T18:00:39.377Z,41.38
2023-04-25T18:03:06.993Z,41.72
2023-04-25T18:05:33.948Z,41.68
2023-04-25T18:08:01.005Z,41.95
2023-04-25T18:10:28.083Z,41.77
2023-04-25T18:12:54.975Z,42.22
2023-04-25T18:15:22.818Z,42.19
2023-04-25T18:17:49.792Z,42.50
2023-04-25T18:20:17.433Z,42.50
2023-04-25T18:22:45.518Z,42.57
2023-04-25T18:25:13.733Z,42.54
2023-04-25T18:27:41.618Z,42.23
2023-04-25T18:30:10.862Z,42.34
2023-04-25T18:32:38.186Z,42.47
2023-04-25T18:35:05.931Z,42.44
2023-04-25T18:37:32.950Z,42.38
2023-04-25T18:40:00.585Z,42.35
2023-04-25T18:42:28.361Z,42.85
2023-04-25T18:44:55.254Z,42.86
2023-04-25T18:47:22.159Z,43.24
2023-04-25T18:49:50.779Z,43.46
2023-04-25T18:52:17.766Z,43.52
2023-04-25T18:54:44.769Z,43.39
2023-04-25T18:57:14.425Z,43.59
2023-04-25T18:59:41.686Z,43.96
2023-04-25T19:02:09.372Z,43.74
2023-04-25T19:04:36.693Z,44.35
2023-04-25T19:07:04.217Z,44.08
2023-04-25T19:09:31.533Z,44.32
2023-04-25T19:11:58.438Z,44.48
2023-04-25T19:14:26.130Z,44.32
2023-04-25T19:16:53.949Z,44.42
2023-04-25T19:19:20.922Z,44.49
2023-04-25T19:21:50.254Z,44.73
2023-04-25T19:24:17.222Z,45.01
2023-04-25T19:26:44.291Z,45.17
2023-04-25T19:29:14.642Z,45.27
2023-04-25T19:31:44.292Z,45.44
2023-04-25T19:34:12.107Z,45.42
2023-04-25T19:36:41.811Z,45.44
2023-04-25T19:39:08.951Z,45.53
2023-04-25T19:41:38.115Z,45.88
2023-04-25T19:44:08.352Z,45.63
2023-04-25T19:46:36.831Z,46.20
2023-04-25T19:49:08.298Z,45.81
2023-04-25T19:51:36.956Z,45.89
2023-04-25T19:54:04.300Z,45.95
2023-04-25T19:56:31.271Z,46.00
2023-04-25T19:58:58.519Z,46.33
2023-04-25T20:01:26.232Z,46.39
2023-04-25T20:03:53.563Z,46.33
2023-04-25T20:06:20.810Z,46.34
2023-04-25T20:08:47.815Z,46.34
2023-04-25T20:11:15.083Z,46.07
2023-04-25T20:13:42.069Z,46.24
2023-04-25T20:16:09.152Z,46.18
2023-04-25T20:18:36.130Z,46.21
2023-04-25T20:21:03.069Z,46.35
2023-04-25T20:23:30.007Z,46.20
2023-04-25T20:25:56.975Z,46.25
2023-04-25T20:28:23.870Z,46.45
2023-04-25T20:30:51.493Z,46.35
2023-04-25T20:33:18.404Z,46.46
2023-04-25T20:35:46.185Z,46.58
2023-04-25T20:38:13.114Z,46.56
2023-04-25T20:40:40.090Z,46.67
2023-04-25T20:43:07.341Z,46.64
2023-04-25T20:45:34.586Z,46.64
2023-04-25T20:48:02.636Z,46.75
2023-04-25T20:50:29.660Z,46.94
2023-04-25T20:52:57.234Z,46.97
2023-04-25T20:55:24.403Z,47.13
2023-04-25T20:57:51.998Z,47.34
2023-04-25T21:00:26.517Z,47.31
2023-04-25T21:02:54.630Z,47.50
2023-04-25T21:05:22.334Z,47.31
2023-04-25T21:07:50.450Z,47.47
2023-04-25T21:10:17.415Z,47.58
2023-04-25T21:12:48.142Z,47.79
2023-04-25T21:15:21.215Z,47.78
2023-04-25T21:17:49.415Z,47.68
2023-04-25T21:20:18.977Z,47.60
2023-04-25T21:22:51.992Z,47.75
2023-04-25T21:25:25.518Z,47.69
2023-04-25T21:27:53.392Z,47.80
2023-04-25T21:30:23.558Z,47.85
2023-04-25T21:32:51.594Z,47.85
2023-04-25T21:35:20.745Z,47.99
2023-04-25T21:37:48.655Z,47.90
2023-04-25T21:40:15.640Z,48.20
2023-04-25T21:42:44.553Z,48.39
2023-04-25T21:45:11.989Z,48.40
2023-04-25T21:47:39.113Z,48.60
2023-04-25T21:50:06.810Z,48.75
2023-04-25T21:52:35.596Z,48.96
2023-04-25T21:55:02.484Z,49.08
2023-04-25T21:57:29.489Z,49.77
2023-04-25T21:59:56.355Z,49.78
2023-04-25T22:02:23.373Z,49.64
2023-04-25T22:04:50.750Z,49.75
2023-04-25T22:07:17.676Z,49.73
2023-04-25T22:09:54.293Z,50.06
2023-04-25T22:12:23.433Z,49.94
2023-04-25T22:14:50.716Z,50.11
2023-04-25T22:17:18.711Z,49.85
2023-04-25T22:19:45.710Z,50.15
2023-04-25T22:22:12.605Z,50.24
2023-04-25T22:24:40.126Z,50.42
2023-04-25T22:27:07.109Z,50.41
2023-04-25T22:29:34.129Z,50.75
2023-04-25T22:32:01.531Z,51.06
2023-04-25T22:34:28.574Z,51.01
2023-04-25T22:36:55.540Z,51.12
2023-04-25T22:39:23.177Z,50.95
2023-04-25T22:41:50.128Z,51.13
2023-04-25T22:44:17.847Z,51.26
2023-04-25T22:46:44.778Z,51.28
2023-04-25T22:49:12.026Z,51.42
2023-04-25T22:51:38.947Z,51.75
2023-04-25T22:54:05.992Z,51.91
2023-04-25T22:56:32.878Z,51.98
2023-04-25T22:58:59.964Z,52.05
2023-04-25T23:01:28.012Z,52.68
2023-04-25T23:03:55.233Z,52.38
2023-04-25T23:06:22.791Z,52.82
2023-04-25T23:08:50.369Z,52.88
2023-04-25T23:11:17.349Z,52.94
2023-04-25T23:13:44.269Z,52.92
2023-04-25T23:16:11.417Z,53.28
2023-04-25T23:18:39.446Z,53.35
2023-04-25T23:21:09.037Z,53.95
2023-04-25T23:23:36.510Z,53.63
2023-04-25T23:26:10.162Z,53.51
2023-04-25T23:28:41.982Z,53.41
2023-04-25T23:31:10.325Z,53.58
2023-04-25T23:33:37.610Z,53.86
2023-04-25T23:36:04.995Z,53.60
2023-04-25T23:38:32.783Z,53.92
2023-04-25T23:40:59.645Z,54.15
2023-04-25T23:43:26.539Z,54.16
2023-04-25T23:45:54.247Z,54.02
2023-04-25T23:48:21.299Z,54.00
2023-04-25T23:50:48.229Z,54.29
2023-04-25T23:53:15.584Z,54.54
2023-04-25T23:55:42.479Z,54.24
2023-04-25T23:58:09.366Z,54.14
